createdAt,value
2022-08-19T00:01:56.100Z,2.67
2022-08-19T00:04:26.532Z,3.38
2022-08-19T00:06:54.015Z,3.25
2022-08-19T00:09:23.201Z,3.60
2022-08-19T00:11:51.003Z,4.05
2022-08-19T00:14:18.947Z,3.38
2022-08-19T00:16:48.283Z,3.40
2022-08-19T00:19:16.530Z,3.00
2022-08-19T00:21:44.411Z,3.80
2022-08-19T00:24:13.609Z,3.90
2022-08-19T00:26:41.308Z,3.40
2022-08-19T00:29:10.115Z,3.33
2022-08-19T00:31:37.267Z,3.75
2022-08-19T00:34:05.144Z,3.20
2022-08-19T00:36:35.099Z,3.13
2022-08-19T00:39:02.352Z,4.03
2022-08-19T00:41:29.647Z,3.70
2022-08-19T00:44:01.286Z,3.60
2022-08-19T00:46:29.175Z,3.88
2022-08-19T00:48:58.593Z,3.67
2022-08-19T00:51:28.494Z,3.65
2022-08-19T00:53:58.057Z,3.42
2022-08-19T00:56:27.304Z,3.88
2022-08-19T00:58:57.422Z,4.10
2022-08-19T01:01:24.594Z,3.97
2022-08-19T01:03:57.207Z,4.35
2022-08-19T01:06:26.945Z,4.00
2022-08-19T01:08:55.967Z,3.83
2022-08-19T01:11:23.013Z,4.47
2022-08-19T01:13:53.154Z,3.78
2022-08-19T01:16:23.453Z,3.67
2022-08-19T01:18:50.944Z,4.40
2022-08-19T01:21:26.858Z,3.72
2022-08-19T01:23:54.043Z,4.00
2022-08-19T01:26:23.737Z,3.42
2022-08-19T01:28:56.158Z,3.90
2022-08-19T01:31:32.790Z,3.58
2022-08-19T01:34:03.234Z,3.92
2022-08-19T01:36:36.390Z,3.78
2022-08-19T01:39:08.942Z,3.92
2022-08-19T01:41:37.771Z,4.20
2022-08-19T01:44:17.915Z,4.25
2022-08-19T01:46:48.734Z,3.80
2022-08-19T01:49:18.804Z,4.03
2022-08-19T01:51:46.671Z,3.65
2022-08-19T01:54:23.036Z,3.85
2022-08-19T01:57:00.921Z,4.45
2022-08-19T01:59:28.177Z,3.97
2022-08-19T02:01:55.213Z,4.07
2022-08-19T02:04:22.274Z,4.53
2022-08-19T02:06:49.258Z,4.85
2022-08-19T02:09:17.341Z,4.40
2022-08-19T02:11:44.593Z,4.75
2022-08-19T02:14:11.832Z,5.10
2022-08-19T02:16:39.343Z,4.95
2022-08-19T02:19:06.613Z,4.28
2022-08-19T02:21:35.921Z,4.38
2022-08-19T02:24:03.629Z,4.00
2022-08-19T02:26:30.852Z,4.43
2022-08-19T02:28:58.442Z,4.30
2022-08-19T02:31:29.128Z,5.07
2022-08-19T02:33:57.504Z,4.25
2022-08-19T02:36:26.043Z,5.07
2022-08-19T02:38:54.323Z,4.32
2022-08-19T02:41:28.619Z,4.70
2022-08-19T02:44:29.644Z,4.28
2022-08-19T02:46:47.306Z,4.75
2022-08-19T02:49:17.541Z,4.60
2022-08-19T02:51:46.847Z,4.30
2022-08-19T02:54:14.646Z,4.75
2022-08-19T02:56:42.984Z,4.28
2022-08-19T02:59:11.199Z,4.60
2022-08-19T03:01:41.803Z,5.00
2022-08-19T03:04:12.170Z,5.20
2022-08-19T03:06:42.361Z,4.55
2022-08-19T03:09:09.911Z,4.75
2022-08-19T03:11:36.823Z,4.57
2022-08-19T03:14:06.020Z,4.28
2022-08-19T03:16:35.097Z,4.50
2022-08-19T03:19:03.833Z,4.95
2022-08-19T03:21:33.596Z,4.38
2022-08-19T03:24:05.630Z,4.65
2022-08-19T03:26:34.859Z,4.20
2022-08-19T03:29:06.045Z,5.15
2022-08-19T03:31:41.765Z,4.50
2022-08-19T03:34:15.388Z,4.07
2022-08-19T03:36:42.653Z,4.20
2022-08-19T03:39:11.874Z,4.88
2022-08-19T03:41:44.919Z,4.72
2022-08-19T03:44:18.312Z,4.38
2022-08-19T03:46:48.784Z,4.78
2022-08-19T03:49:18.396Z,4.45
2022-08-19T03:51:48.167Z,4.70
2022-08-19T03:54:17.878Z,4.85
2022-08-19T03:56:49.239Z,4.43
2022-08-19T03:59:20.178Z,4.38
2022-08-19T04:01:47.759Z,4.63
2022-08-19T04:04:14.773Z,4.85
2022-08-19T04:06:41.785Z,4.60
2022-08-19T04:09:10.659Z,4.72
2022-08-19T04:11:46.081Z,4.18
2022-08-19T04:14:17.063Z,4.45
2022-08-19T04:16:45.589Z,4.88
2022-08-19T04:19:16.884Z,4.40
2022-08-19T04:21:50.998Z,3.95
2022-08-19T04:24:19.048Z,5.03
2022-08-19T04:26:49.044Z,4.30
2022-08-19T04:29:25.635Z,4.50
2022-08-19T04:31:54.618Z,4.28
2022-08-19T04:34:24.928Z,3.83
2022-08-19T04:36:57.411Z,3.78
2022-08-19T04:39:46.491Z,4.07
2022-08-19T04:42:32.802Z,3.88
2022-08-19T04:45:00.153Z,3.92
2022-08-19T04:47:46.892Z,4.30
2022-08-19T04:50:14.883Z,4.35
2022-08-19T04:52:46.112Z,3.85
2022-08-19T04:55:13.603Z,3.70
2022-08-19T04:57:41.577Z,3.60
2022-08-19T05:00:11.268Z,4.22
2022-08-19T05:02:39.043Z,3.83
2022-08-19T05:05:07.615Z,4.13
2022-08-19T05:07:35.155Z,4.00
2022-08-19T05:10:02.711Z,4.07
2022-08-19T05:12:29.884Z,4.00
2022-08-19T05:14:58.581Z,4.07
2022-08-19T05:17:30.338Z,4.10
2022-08-19T05:20:18.940Z,4.45
2022-08-19T05:22:47.605Z,3.65
2022-08-19T05:25:20.101Z,3.90
2022-08-19T05:27:48.224Z,3.97
2022-08-19T05:30:15.969Z,4.10
2022-08-19T05:32:43.893Z,4.22
2022-08-19T05:35:11.684Z,3.67
2022-08-19T05:37:41.347Z,4.10
2022-08-19T05:40:09.647Z,3.92
2022-08-19T05:42:36.434Z,4.07
2022-08-19T05:45:05.394Z,3.85
2022-08-19T05:47:33.010Z,4.13
2022-08-19T05:50:00.016Z,3.70
2022-08-19T05:52:28.147Z,3.78
2022-08-19T05:54:56.775Z,3.78
2022-08-19T05:57:25.258Z,3.38
2022-08-19T05:59:58.154Z,3.65
2022-08-19T06:02:27.325Z,3.90
2022-08-19T06:04:54.106Z,3.70
2022-08-19T06:07:20.968Z,3.50
2022-08-19T06:10:00.654Z,4.00
2022-08-19T06:12:35.433Z,3.65
2022-08-19T06:15:13.206Z,4.65
2022-08-19T06:17:40.086Z,4.93
2022-08-19T06:20:10.982Z,4.68
2022-08-19T06:22:46.818Z,4.28
2022-08-19T06:25:15.344Z,4.38
2022-08-19T06:28:11.557Z,4.15
2022-08-19T06:30:30.630Z,3.88
2022-08-19T06:32:57.516Z,4.13
2022-08-19T06:35:24.270Z,5.22
2022-08-19T06:37:51.158Z,4.80
2022-08-19T06:40:18.300Z,3.75
2022-08-19T06:42:54.162Z,4.32
2022-08-19T06:45:24.680Z,4.28
2022-08-19T06:47:56.821Z,3.58
2022-08-19T06:50:26.163Z,4.25
2022-08-19T06:52:53.429Z,3.67
2022-08-19T06:55:21.075Z,3.40
2022-08-19T06:57:49.261Z,4.07
2022-08-19T07:00:17.161Z,4.03
2022-08-19T07:02:49.576Z,3.83
2022-08-19T07:05:22.866Z,3.72
2022-08-19T07:07:51.132Z,3.97
2022-08-19T07:10:18.766Z,3.75
2022-08-19T07:12:45.932Z,4.22
2022-08-19T07:15:13.432Z,3.70
2022-08-19T07:17:41.888Z,3.60
2022-08-19T07:20:10.174Z,3.40
2022-08-19T07:22:39.228Z,4.22
2022-08-19T07:25:08.478Z,3.95
2022-08-19T07:27:35.654Z,3.33
2022-08-19T07:30:02.983Z,3.95
2022-08-19T07:32:31.811Z,3.58
2022-08-19T07:35:01.667Z,3.75
2022-08-19T07:37:33.156Z,4.28
2022-08-19T07:40:02.401Z,4.50
2022-08-19T07:42:30.997Z,3.60
2022-08-19T07:44:59.690Z,4.07
2022-08-19T07:47:58.450Z,4.00
2022-08-19T07:50:14.757Z,4.05
2022-08-19T07:52:41.912Z,3.58
2022-08-19T07:55:40.334Z,3.40
2022-08-19T07:57:58.562Z,3.58
2022-08-19T08:00:29.027Z,3.78
2022-08-19T08:02:57.111Z,4.25
2022-08-19T08:05:44.250Z,3.83
2022-08-19T08:08:32.187Z,3.35
2022-08-19T08:11:00.487Z,3.75
2022-08-19T08:13:28.231Z,3.83
2022-08-19T08:15:57.263Z,3.40
2022-08-19T08:18:28.087Z,3.50
2022-08-19T08:20:58.753Z,3.25
2022-08-19T08:23:27.181Z,3.38
2022-08-19T08:25:58.065Z,3.60
2022-08-19T08:28:26.298Z,3.58
2022-08-19T08:30:58.133Z,3.47
2022-08-19T08:33:32.980Z,3.67
2022-08-19T08:36:12.944Z,3.70
2022-08-19T08:38:41.957Z,3.35
2022-08-19T08:41:20.803Z,3.92
2022-08-19T08:43:52.188Z,5.25
2022-08-19T08:46:46.920Z,3.80
2022-08-19T08:49:26.148Z,4.10
2022-08-19T08:52:06.604Z,3.85
2022-08-19T08:54:48.833Z,4.65
2022-08-19T08:57:57.433Z,3.50
2022-08-19T09:00:30.394Z,3.95
2022-08-19T09:03:02.789Z,4.22
2022-08-19T09:05:48.685Z,3.90
2022-08-19T09:08:37.468Z,4.35
2022-08-19T09:11:17.297Z,3.88
2022-08-19T09:14:49.776Z,3.85
2022-08-19T09:17:19.685Z,4.70
2022-08-19T09:19:51.814Z,4.07
2022-08-19T09:22:25.534Z,4.00
2022-08-19T09:24:55.088Z,4.18
2022-08-19T09:27:41.873Z,4.32
2022-08-19T09:30:20.482Z,3.83
2022-08-19T09:32:47.762Z,4.03
2022-08-19T09:35:28.565Z,3.63
2022-08-19T09:38:06.388Z,3.88
2022-08-19T09:40:37.937Z,4.75
2022-08-19T09:43:13.341Z,4.10
2022-08-19T09:45:44.193Z,3.72
2022-08-19T09:48:19.060Z,3.92
2022-08-19T09:50:51.843Z,3.63
2022-08-19T09:53:25.582Z,4.97
2022-08-19T09:55:58.040Z,4.40
2022-08-19T09:58:28.704Z,4.45
2022-08-19T10:00:57.297Z,4.70
2022-08-19T10:03:30.420Z,5.07
2022-08-19T10:05:59.530Z,3.90
2022-08-19T10:08:37.985Z,4.10
2022-08-19T10:11:27.954Z,4.05
2022-08-19T10:13:52.342Z,3.83
2022-08-19T10:16:25.999Z,3.83
2022-08-19T10:18:58.706Z,4.50
2022-08-19T10:21:32.858Z,4.22
2022-08-19T10:24:04.992Z,4.03
2022-08-19T10:26:38.287Z,3.92
2022-08-19T10:29:06.565Z,5.57
2022-08-19T10:32:02.655Z,4.05
2022-08-19T10:34:28.073Z,3.50
2022-08-19T10:37:00.627Z,3.58
2022-08-19T10:39:32.980Z,4.25
2022-08-19T10:42:11.830Z,3.60
2022-08-19T10:44:38.684Z,4.10
2022-08-19T10:47:17.685Z,3.90
2022-08-19T10:50:11.762Z,3.92
2022-08-19T10:52:48.964Z,3.92
2022-08-19T10:55:37.827Z,3.63
2022-08-19T10:58:05.011Z,4.20
2022-08-19T11:00:33.091Z,3.90
2022-08-19T11:03:01.210Z,3.55
2022-08-19T11:05:27.924Z,3.92
2022-08-19T11:07:54.902Z,3.30
2022-08-19T11:10:23.438Z,4.47
2022-08-19T11:12:54.062Z,3.95
2022-08-19T11:15:21.031Z,3.75
2022-08-19T11:17:48.238Z,3.72
2022-08-19T11:20:15.908Z,3.33
2022-08-19T11:22:43.509Z,3.80
2022-08-19T11:25:11.771Z,3.15
2022-08-19T11:27:45.800Z,3.38
2022-08-19T11:30:14.491Z,2.95
2022-08-19T11:32:45.915Z,3.00
2022-08-19T11:35:14.035Z,3.67
2022-08-19T11:37:41.713Z,3.40
2022-08-19T11:40:09.328Z,3.22
2022-08-19T11:42:54.726Z,3.30
2022-08-19T11:45:21.817Z,3.53
2022-08-19T11:47:49.173Z,3.35
2022-08-19T11:50:17.293Z,4.00
2022-08-19T11:52:45.994Z,3.17
2022-08-19T11:55:15.775Z,3.35
2022-08-19T11:57:44.618Z,3.53
2022-08-19T12:00:13.785Z,3.60
2022-08-19T12:02:41.313Z,3.38
2022-08-19T12:05:12.198Z,2.83
2022-08-19T12:07:42.058Z,3.22
2022-08-19T12:10:09.549Z,3.45
2022-08-19T12:12:43.733Z,3.60
2022-08-19T12:17:39.787Z,4.05
2022-08-19T12:20:10.210Z,3.03
2022-08-19T12:22:38.817Z,3.45
2022-08-19T12:25:06.657Z,2.95
2022-08-19T12:27:40.521Z,3.95
2022-08-19T12:30:10.910Z,3.63
2022-08-19T12:32:38.180Z,3.42
2022-08-19T12:35:06.170Z,3.35
2022-08-19T12:37:33.588Z,3.90
2022-08-19T12:40:00.711Z,3.33
2022-08-19T12:42:28.103Z,3.47
2022-08-19T12:44:55.051Z,3.97
2022-08-19T12:47:22.195Z,4.07
2022-08-19T12:49:54.093Z,2.75
2022-08-19T12:52:28.351Z,3.03
2022-08-19T12:54:57.275Z,3.33
2022-08-19T12:57:32.915Z,3.92
2022-08-19T13:00:13.537Z,3.58
2022-08-19T13:02:42.452Z,3.75
2022-08-19T13:05:12.648Z,4.00
2022-08-19T13:07:40.958Z,3.78
2022-08-19T13:10:12.468Z,3.40
2022-08-19T13:12:40.047Z,3.72
2022-08-19T13:15:10.571Z,3.78
2022-08-19T13:17:39.364Z,3.25
2022-08-19T13:20:09.203Z,3.10
2022-08-19T13:22:37.014Z,3.13
2022-08-19T13:25:06.313Z,4.10
2022-08-19T13:27:33.747Z,3.78
2022-08-19T13:30:19.321Z,3.22
2022-08-19T13:33:05.039Z,3.47
2022-08-19T13:35:32.013Z,3.75
2022-08-19T13:37:58.921Z,3.72
2022-08-19T13:40:27.363Z,3.40
2022-08-19T13:42:56.175Z,3.70
2022-08-19T13:45:25.687Z,3.20
2022-08-19T13:47:59.692Z,3.70
2022-08-19T13:50:29.649Z,4.15
2022-08-19T13:52:57.153Z,3.45
2022-08-19T13:55:25.582Z,3.78
2022-08-19T13:57:56.810Z,3.30
2022-08-19T14:00:32.686Z,3.28
2022-08-19T14:02:59.642Z,3.45
2022-08-19T14:05:28.567Z,3.92
2022-08-19T14:07:56.645Z,3.55
2022-08-19T14:10:24.393Z,3.90
2022-08-19T14:12:56.471Z,3.25
2022-08-19T14:15:24.391Z,3.42
2022-08-19T14:17:51.772Z,3.40
2022-08-19T14:20:18.928Z,3.28
2022-08-19T14:22:48.840Z,3.75
2022-08-19T14:25:22.720Z,3.58
2022-08-19T14:27:50.373Z,3.80
2022-08-19T14:30:20.640Z,3.10
2022-08-19T14:32:47.704Z,3.83
2022-08-19T14:35:16.315Z,4.20
2022-08-19T14:37:46.283Z,3.33
2022-08-19T14:40:18.709Z,3.70
2022-08-19T14:42:45.858Z,3.45
2022-08-19T14:45:13.513Z,4.05
2022-08-19T14:47:40.864Z,3.35
2022-08-19T14:50:18.361Z,3.97
2022-08-19T14:52:48.826Z,3.83
2022-08-19T14:55:17.440Z,3.78
2022-08-19T14:57:45.672Z,3.28
2022-08-19T15:00:16.098Z,3.28
2022-08-19T15:02:45.262Z,3.30
2022-08-19T15:05:13.399Z,3.72
2022-08-19T15:07:41.952Z,3.92
2022-08-19T15:10:11.021Z,3.92
2022-08-19T15:12:43.555Z,3.08
2022-08-19T15:15:14.178Z,3.55
2022-08-19T15:17:46.514Z,3.17
2022-08-19T15:20:16.458Z,3.55
2022-08-19T15:22:43.324Z,3.35
2022-08-19T15:25:12.367Z,3.30
2022-08-19T15:27:40.753Z,2.95
2022-08-19T15:30:11.897Z,3.38
2022-08-19T15:32:39.705Z,4.53
2022-08-19T15:35:08.360Z,3.13
2022-08-19T15:37:37.237Z,4.40
2022-08-19T15:40:07.495Z,3.50
2022-08-19T15:42:37.807Z,4.15
2022-08-19T15:45:06.560Z,3.33
2022-08-19T15:47:35.273Z,3.35
2022-08-19T15:50:11.081Z,3.78
2022-08-19T15:52:50.223Z,3.42
2022-08-19T15:55:33.958Z,3.40
2022-08-19T15:58:28.563Z,3.17
2022-08-19T16:01:20.625Z,3.63
2022-08-19T16:04:14.044Z,2.97
2022-08-19T16:06:48.669Z,6.15
2022-08-19T16:09:17.302Z,4.00
2022-08-19T16:11:46.074Z,12.27
2022-08-19T16:14:18.573Z,9.55
2022-08-19T16:16:47.675Z,4.32
2022-08-19T16:19:17.388Z,3.80
2022-08-19T16:21:47.401Z,4.72
2022-08-19T16:24:16.144Z,3.80
2022-08-19T16:26:44.156Z,3.33
2022-08-19T16:29:13.331Z,4.35
2022-08-19T16:31:43.717Z,3.28
2022-08-19T16:34:12.064Z,3.38
2022-08-19T16:36:43.437Z,3.38
2022-08-19T16:39:13.676Z,3.78
2022-08-19T16:41:43.325Z,3.60
2022-08-19T16:44:12.506Z,3.20
2022-08-19T16:46:43.201Z,3.42
2022-08-19T16:49:11.190Z,3.53
2022-08-19T16:51:39.224Z,3.33
2022-08-19T16:54:06.601Z,3.85
2022-08-19T16:56:33.931Z,2.85
2022-08-19T16:59:00.937Z,3.38
2022-08-19T17:01:28.715Z,3.28
2022-08-19T17:03:55.862Z,4.00
2022-08-19T17:06:26.405Z,3.08
2022-08-19T17:09:01.682Z,3.22
2022-08-19T17:11:31.180Z,3.20
2022-08-19T17:13:59.771Z,3.10
2022-08-19T17:16:29.135Z,3.72
2022-08-19T17:18:58.109Z,3.15
2022-08-19T17:21:28.171Z,3.88
2022-08-19T17:23:59.939Z,3.35
2022-08-19T17:26:27.624Z,2.80
2022-08-19T17:28:56.714Z,3.10
2022-08-19T17:31:26.679Z,3.08
2022-08-19T17:33:54.979Z,3.33
2022-08-19T17:36:23.905Z,3.20
2022-08-19T17:38:51.697Z,3.20
2022-08-19T17:41:19.221Z,3.25
2022-08-19T17:43:46.159Z,3.03
2022-08-19T17:46:19.659Z,2.85
2022-08-19T17:48:54.767Z,3.47
2022-08-19T17:53:52.951Z,3.28
2022-08-19T17:56:20.912Z,2.95
2022-08-19T17:58:59.571Z,2.83
2022-08-19T18:01:30.738Z,2.40
2022-08-19T18:04:17.278Z,2.53
2022-08-19T18:06:52.643Z,2.70
2022-08-19T18:09:30.040Z,2.58
2022-08-19T18:12:14.001Z,2.83
2022-08-19T18:14:43.405Z,2.70
2022-08-19T18:17:12.803Z,2.15
2022-08-19T18:19:44.076Z,2.92
2022-08-19T18:22:27.143Z,2.90
2022-08-19T18:24:56.143Z,2.25
2022-08-19T18:27:23.586Z,2.78
2022-08-19T18:29:50.623Z,2.80
2022-08-19T18:32:23.765Z,2.72
2022-08-19T18:34:51.391Z,2.42
2022-08-19T18:37:21.610Z,2.75
2022-08-19T18:40:20.398Z,2.83
2022-08-19T18:43:07.743Z,2.95
2022-08-19T18:45:53.216Z,2.60
2022-08-19T18:48:40.231Z,2.67
2022-08-19T18:51:09.685Z,2.70
2022-08-19T18:53:39.453Z,2.50
2022-08-19T18:56:08.975Z,2.58
2022-08-19T18:58:39.117Z,2.28
2022-08-19T19:01:25.445Z,2.42
2022-08-19T19:03:54.773Z,2.60
2022-08-19T19:06:28.535Z,2.53
2022-08-19T19:08:55.931Z,2.47
2022-08-19T19:11:27.732Z,2.03
2022-08-19T19:13:55.487Z,2.22
2022-08-19T19:16:24.611Z,2.58
2022-08-19T19:18:54.547Z,2.50
2022-08-19T19:21:25.043Z,2.58
2022-08-19T19:23:54.272Z,3.17
2022-08-19T19:26:21.787Z,2.22
2022-08-19T19:28:51.458Z,2.42
2022-08-19T19:31:23.321Z,2.60
2022-08-19T19:33:50.727Z,3.00
2022-08-19T19:36:17.712Z,3.35
2022-08-19T19:38:48.506Z,3.40
2022-08-19T19:41:20.470Z,2.63
2022-08-19T19:43:56.655Z,2.92
2022-08-19T19:46:33.639Z,3.08
2022-08-19T19:49:01.194Z,2.90
2022-08-19T19:51:29.448Z,2.50
2022-08-19T19:54:00.248Z,2.63
2022-08-19T19:56:27.476Z,2.35
2022-08-19T19:58:56.532Z,2.35
2022-08-19T20:01:26.659Z,2.45
2022-08-19T20:03:55.290Z,2.55
2022-08-19T20:06:23.398Z,2.33
2022-08-19T20:09:10.877Z,2.45
2022-08-19T20:11:48.158Z,2.78
2022-08-19T20:14:24.135Z,2.17
2022-08-19T20:16:52.564Z,2.72
2022-08-19T20:19:22.633Z,2.55
2022-08-19T20:21:51.407Z,2.78
2022-08-19T20:24:24.832Z,2.88
2022-08-19T20:26:59.149Z,2.35
2022-08-19T20:29:37.980Z,2.65
2022-08-19T20:32:08.003Z,2.85
2022-08-19T20:34:36.137Z,2.30
2022-08-19T20:37:03.888Z,2.63
2022-08-19T20:39:31.338Z,2.53
2022-08-19T20:41:58.648Z,2.60
2022-08-19T20:44:25.858Z,2.65
2022-08-19T20:47:01.695Z,2.80
2022-08-19T20:49:32.698Z,2.88
2022-08-19T20:52:01.174Z,2.65
2022-08-19T20:54:31.787Z,2.72
2022-08-19T20:56:58.799Z,3.03
2022-08-19T20:59:27.147Z,2.97
2022-08-19T21:01:54.827Z,2.90
2022-08-19T21:04:22.369Z,2.60
2022-08-19T21:06:50.934Z,2.53
2022-08-19T21:09:18.361Z,3.00
2022-08-19T21:11:45.667Z,3.20
2022-08-19T21:14:13.431Z,3.05
2022-08-19T21:16:40.424Z,3.17
2022-08-19T21:19:07.654Z,3.10
2022-08-19T21:21:35.107Z,2.40
2022-08-19T21:24:02.350Z,2.72
2022-08-19T21:26:29.195Z,2.70
2022-08-19T21:28:56.258Z,2.80
2022-08-19T21:31:23.205Z,2.63
2022-08-19T21:33:50.578Z,2.95
2022-08-19T21:36:19.033Z,2.50
2022-08-19T21:38:47.411Z,2.30
2022-08-19T21:41:14.358Z,2.88
2022-08-19T21:43:41.366Z,2.38
2022-08-19T21:46:09.362Z,2.40
2022-08-19T21:48:36.860Z,3.10
2022-08-19T21:51:03.985Z,3.20
2022-08-19T21:53:34.606Z,2.70
2022-08-19T21:56:08.745Z,2.80
2022-08-19T21:58:36.883Z,2.70
2022-08-19T22:01:08.252Z,2.97
2022-08-19T22:03:39.364Z,2.80
2022-08-19T22:06:07.238Z,2.67
2022-08-19T22:08:34.268Z,2.95
2022-08-19T22:11:03.344Z,2.65
2022-08-19T22:13:37.950Z,2.95
2022-08-19T22:16:06.865Z,2.80
2022-08-19T22:18:36.083Z,2.58
2022-08-19T22:21:11.358Z,3.00
2022-08-19T22:23:46.812Z,2.67
2022-08-19T22:26:16.203Z,3.00
2022-08-19T22:28:43.738Z,2.90
2022-08-19T22:31:11.460Z,2.72
2022-08-19T22:33:39.320Z,3.20
2022-08-19T22:36:07.782Z,3.17
2022-08-19T22:38:35.697Z,3.13
2022-08-19T22:41:02.676Z,2.75
2022-08-19T22:43:31.878Z,2.80
2022-08-19T22:46:00.499Z,3.35
2022-08-19T22:48:29.400Z,3.55
2022-08-19T22:51:15.724Z,3.42
2022-08-19T22:53:45.367Z,3.40
2022-08-19T22:56:15.509Z,2.97
2022-08-19T22:58:43.528Z,2.60
2022-08-19T23:01:14.663Z,2.85
2022-08-19T23:03:56.344Z,3.17
2022-08-19T23:06:23.256Z,2.53
2022-08-19T23:08:56.595Z,2.75
2022-08-19T23:11:23.377Z,3.05
2022-08-19T23:13:52.705Z,2.53
2022-08-19T23:16:19.486Z,2.63
2022-08-19T23:18:48.119Z,3.25
2022-08-19T23:21:15.102Z,2.58
2022-08-19T23:23:41.907Z,3.22
2022-08-19T23:26:10.449Z,2.38
2022-08-19T23:28:57.524Z,2.40
2022-08-19T23:31:26.277Z,2.55
2022-08-19T23:33:53.440Z,2.65
2022-08-19T23:36:21.703Z,2.50
2022-08-19T23:38:51.956Z,2.42
2022-08-19T23:41:20.495Z,2.78
2022-08-19T23:43:47.548Z,2.40
2022-08-19T23:46:27.992Z,2.53
2022-08-19T23:48:56.813Z,2.63
2022-08-19T23:51:24.663Z,2.35
2022-08-19T23:53:51.543Z,2.40
2022-08-19T23:56:19.376Z,2.40
2022-08-19T23:58:47.217Z,2.92
